Time;durP1;ratioP1;P1;durP2;ratioP2;P2;SDS_P1;SDS_P2;PMS_P1;PMS_P2;Temp;Humidity;BMP_temperature;BMP_pressure;BME280_temperature;BME280_humidity;BME280_pressure;Samples;Min_cycle;Max_cycle;Signal;HPM_P1;HPM_P2
2023/03/03 00:01:36;;;;;;;38.10;21.42;;;3.90;99.90;;;;;;5078713;28;20209;-74
2023/03/03 00:04:03;;;;;;;31.23;20.10;;;3.80;99.90;;;;;;5082243;28;20301;-74
2023/03/03 00:06:30;;;;;;;31.90;18.73;;;3.90;99.90;;;;;;5079365;28;20227;-75
2023/03/03 00:08:57;;;;;;;38.03;22.35;;;3.90;99.90;;;;;;5080533;28;20672;-74
2023/03/03 00:11:25;;;;;;;35.50;23.05;;;3.90;99.90;;;;;;5087879;28;20546;-75
2023/03/03 00:13:54;;;;;;;33.90;20.45;;;3.90;99.90;;;;;;5092974;28;20198;-75
2023/03/03 00:16:25;;;;;;;35.78;21.10;;;3.90;99.90;;;;;;5080831;28;20581;-75
2023/03/03 00:18:53;;;;;;;31.15;19.90;;;3.80;99.90;;;;;;5079727;28;20300;-75
2023/03/03 00:21:40;;;;;;;37.28;20.80;;;4.00;99.90;;;;;;5083599;28;20309;-73
2023/03/03 00:24:22;;;;;;;42.10;20.08;;;3.80;99.90;;;;;;5088558;28;20251;-73
2023/03/03 00:26:51;;;;;;;33.83;20.17;;;3.80;99.90;;;;;;5086463;28;20225;-74
2023/03/03 00:29:30;;;;;;;37.97;20.95;;;3.80;99.90;;;;;;5084167;28;20233;-73
2023/03/03 00:32:18;;;;;;;33.67;19.75;;;3.90;99.90;;;;;;5082841;28;20206;-74
2023/03/03 00:34:45;;;;;;;43.38;21.98;;;3.90;99.90;;;;;;5080622;28;20230;-73
2023/03/03 00:37:30;;;;;;;47.13;23.83;;;3.90;99.90;;;;;;5086621;28;20308;-74
2023/03/03 00:40:09;;;;;;;42.13;22.55;;;3.90;99.90;;;;;;5082312;28;20294;-73
2023/03/03 00:42:36;;;;;;;41.08;24.15;;;3.80;99.90;;;;;;5076128;28;20230;-74
2023/03/03 00:45:18;;;;;;;40.20;21.05;;;3.80;99.90;;;;;;5077982;28;20195;-75
2023/03/03 00:47:47;;;;;;;39.70;22.88;;;3.80;99.90;;;;;;5078269;28;20298;-74
2023/03/03 00:50:27;;;;;;;45.90;24.95;;;3.70;99.90;;;;;;5090060;28;20289;-74
2023/03/03 00:53:03;;;;;;;42.25;24.20;;;3.80;99.90;;;;;;5076919;28;20234;-74
2023/03/03 00:55:31;;;;;;;42.60;22.77;;;3.80;99.90;;;;;;5080300;28;20203;-73
2023/03/03 00:57:58;;;;;;;44.40;24.50;;;3.80;99.90;;;;;;5076760;28;20227;-73
2023/03/03 01:00:25;;;;;;;48.42;22.80;;;3.90;99.90;;;;;;5080174;28;20265;-74
2023/03/03 01:02:54;;;;;;;43.60;23.30;;;4.00;99.90;;;;;;5080779;28;20198;-73
2023/03/03 01:05:22;;;;;;;42.60;24.25;;;4.00;99.90;;;;;;5081703;28;20233;-74
2023/03/03 01:07:48;;;;;;;42.65;23.25;;;4.10;99.90;;;;;;5080502;28;20257;-75
2023/03/03 01:10:16;;;;;;;43.67;26.55;;;4.20;99.90;;;;;;5087546;28;20281;-74
2023/03/03 01:12:43;;;;;;;43.40;23.42;;;4.20;99.90;;;;;;5090886;28;20298;-74
2023/03/03 01:15:15;;;;;;;39.42;23.20;;;4.30;99.90;;;;;;5076810;28;20256;-74
2023/03/03 01:17:42;;;;;;;46.40;24.67;;;4.30;99.90;;;;;;5092809;28;20257;-73
2023/03/03 01:20:13;;;;;;;50.00;25.42;;;4.10;99.90;;;;;;5093313;28;20230;-74
2023/03/03 01:22:40;;;;;;;50.75;26.42;;;4.10;99.90;;;;;;5084045;28;20197;-74
2023/03/03 01:25:09;;;;;;;45.95;25.05;;;4.00;99.90;;;;;;5079308;28;20229;-74
2023/03/03 01:27:37;;;;;;;54.00;28.23;;;4.00;99.90;;;;;;5079455;28;20231;-73
2023/03/03 01:30:05;;;;;;;52.05;25.55;;;4.00;99.90;;;;;;5093552;28;20665;-74
2023/03/03 01:32:32;;;;;;;43.70;24.85;;;3.90;99.90;;;;;;5092812;28;20625;-73
2023/03/03 01:34:59;;;;;;;56.70;26.70;;;4.00;99.90;;;;;;5093398;28;20205;-74
2023/03/03 01:37:28;;;;;;;48.65;23.73;;;4.00;99.90;;;;;;5090194;28;20254;-74
2023/03/03 01:39:55;;;;;;;60.17;27.45;;;3.90;99.90;;;;;;5092296;28;20222;-73
2023/03/03 01:42:27;;;;;;;54.75;24.90;;;3.90;99.90;;;;;;5092746;28;20687;-73
2023/03/03 01:45:17;;;;;;;64.78;26.67;;;3.90;99.90;;;;;;5089818;28;20220;-73
2023/03/03 01:47:52;;;;;;;45.35;23.55;;;3.90;99.90;;;;;;5085311;28;20751;-73
2023/03/03 01:50:32;;;;;;;56.78;26.80;;;3.90;99.90;;;;;;5068577;28;20274;-74
2023/03/03 01:53:04;;;;;;;71.40;30.17;;;3.80;99.90;;;;;;5091828;28;20198;-74
2023/03/03 01:55:36;;;;;;;60.83;30.17;;;3.80;99.90;;;;;;5091546;28;20293;-74
2023/03/03 01:58:07;;;;;;;61.72;28.45;;;3.80;99.90;;;;;;5084843;28;20264;-75
2023/03/03 02:00:36;;;;;;;62.47;27.83;;;3.80;99.90;;;;;;5082880;28;20313;-73
2023/03/03 02:03:03;;;;;;;63.85;26.92;;;3.80;99.90;;;;;;5083991;28;20234;-74
2023/03/03 02:05:30;;;;;;;57.80;26.58;;;3.80;99.90;;;;;;5088206;28;20226;-74
2023/03/03 02:07:57;;;;;;;51.72;25.27;;;3.70;99.90;;;;;;5078953;28;20313;-74
2023/03/03 02:10:26;;;;;;;52.42;28.08;;;3.60;99.90;;;;;;5080977;28;20288;-74
2023/03/03 02:12:55;;;;;;;59.70;30.23;;;3.70;99.90;;;;;;5085569;28;20258;-74
2023/03/03 02:15:24;;;;;;;55.22;29.08;;;3.60;99.90;;;;;;5084869;28;20292;-75
2023/03/03 02:17:54;;;;;;;56.72;28.48;;;3.70;99.90;;;;;;5085287;28;20230;-74
2023/03/03 02:20:34;;;;;;;62.33;31.65;;;3.70;99.90;;;;;;5089548;28;20229;-74
2023/03/03 02:23:07;;;;;;;58.55;27.95;;;3.70;99.90;;;;;;5086856;28;20210;-74
2023/03/03 02:25:46;;;;;;;68.20;29.83;;;3.70;99.90;;;;;;5069019;28;20645;-75
2023/03/03 02:28:15;;;;;;;58.03;28.85;;;3.60;99.90;;;;;;5080319;28;20224;-74
2023/03/03 02:30:42;;;;;;;57.35;28.65;;;3.60;99.90;;;;;;5092377;28;20198;-74
2023/03/03 02:33:09;;;;;;;65.97;30.73;;;3.60;99.90;;;;;;5091595;28;20322;-75
2023/03/03 02:35:38;;;;;;;58.38;27.83;;;3.60;99.90;;;;;;5088854;28;20199;-74
2023/03/03 02:38:19;;;;;;;58.00;29.55;;;3.60;99.90;;;;;;5080392;28;20297;-74
2023/03/03 02:40:57;;;;;;;55.55;28.70;;;3.60;99.90;;;;;;5090018;28;20293;-74
2023/03/03 02:43:29;;;;;;;64.60;31.15;;;3.60;99.90;;;;;;5081352;28;20207;-74
2023/03/03 02:45:56;;;;;;;60.63;31.05;;;3.50;99.90;;;;;;5084042;28;20206;-74
2023/03/03 02:48:23;;;;;;;65.28;31.38;;;3.50;99.90;;;;;;5088500;28;20277;-74
2023/03/03 02:50:50;;;;;;;60.92;29.02;;;3.50;99.90;;;;;;5084972;28;20281;-74
2023/03/03 02:53:18;;;;;;;54.42;28.50;;;3.60;99.90;;;;;;5092139;28;20292;-74
2023/03/03 02:55:45;;;;;;;51.65;26.65;;;3.70;99.90;;;;;;5090763;28;20201;-73
2023/03/03 02:58:12;;;;;;;58.15;28.98;;;3.70;99.90;;;;;;5095646;28;20552;-73
2023/03/03 03:00:40;;;;;;;65.78;30.08;;;3.60;99.90;;;;;;5085174;28;20309;-73
2023/03/03 03:03:07;;;;;;;57.08;29.02;;;3.60;99.90;;;;;;5083951;28;20569;-74
2023/03/03 03:05:34;;;;;;;56.85;28.88;;;3.60;99.90;;;;;;5096147;28;20284;-73
2023/03/03 03:08:02;;;;;;;68.93;28.63;;;3.60;99.90;;;;;;5087447;28;20224;-73
2023/03/03 03:10:29;;;;;;;61.80;30.17;;;3.50;99.90;;;;;;5087244;28;20198;-74
2023/03/03 03:12:55;;;;;;;57.35;30.85;;;3.60;99.90;;;;;;5094849;28;20280;-74
2023/03/03 03:15:22;;;;;;;65.25;32.05;;;3.60;99.90;;;;;;5095324;28;20288;-73
2023/03/03 03:17:51;;;;;;;70.15;30.08;;;3.50;99.90;;;;;;5076923;28;20226;-74
2023/03/03 03:20:18;;;;;;;68.18;31.50;;;3.50;99.90;;;;;;5082696;28;20249;-74
2023/03/03 03:22:45;;;;;;;60.83;28.92;;;3.50;99.90;;;;;;5087987;28;20202;-73
2023/03/03 03:25:12;;;;;;;56.75;31.05;;;3.40;99.90;;;;;;5095291;28;20208;-74
2023/03/03 03:27:39;;;;;;;79.32;34.42;;;3.40;99.90;;;;;;5077927;28;20642;-73
2023/03/03 03:30:07;;;;;;;77.65;33.80;;;3.50;99.90;;;;;;5078443;28;20217;-74
2023/03/03 03:32:34;;;;;;;78.65;36.78;;;3.50;99.90;;;;;;5093916;28;20622;-74
2023/03/03 03:35:02;;;;;;;82.72;36.35;;;3.50;99.90;;;;;;5084382;28;20294;-74
2023/03/03 03:37:29;;;;;;;81.93;35.72;;;3.50;99.90;;;;;;5085960;28;20252;-74
2023/03/03 03:39:56;;;;;;;102.57;41.47;;;3.60;99.90;;;;;;5090440;28;20564;-74
2023/03/03 03:42:23;;;;;;;86.40;34.28;;;3.60;99.90;;;;;;5079929;28;20717;-74
2023/03/03 03:44:51;;;;;;;78.88;34.75;;;3.60;99.90;;;;;;5079943;28;20238;-74
2023/03/03 03:47:18;;;;;;;83.88;35.08;;;3.60;99.90;;;;;;5079868;28;20226;-73
2023/03/03 03:49:45;;;;;;;98.45;35.35;;;3.60;99.90;;;;;;5082959;28;20244;-74
2023/03/03 03:52:13;;;;;;;103.75;39.13;;;3.60;99.90;;;;;;5085617;28;20216;-73
2023/03/03 03:54:40;;;;;;;86.55;36.50;;;3.50;99.90;;;;;;5092597;28;20281;-73
2023/03/03 03:57:07;;;;;;;86.75;35.83;;;3.50;99.90;;;;;;5088935;28;20218;-74
2023/03/03 03:59:34;;;;;;;89.07;38.17;;;3.40;99.90;;;;;;5088201;28;20304;-74
2023/03/03 04:02:01;;;;;;;101.60;36.35;;;3.50;99.90;;;;;;5089823;28;20223;-74
2023/03/03 04:04:28;;;;;;;96.80;38.28;;;3.50;99.90;;;;;;5093015;28;20197;-74
2023/03/03 04:06:55;;;;;;;99.55;38.55;;;3.60;99.90;;;;;;5089922;28;20633;-73
2023/03/03 04:09:23;;;;;;;89.00;35.83;;;3.70;99.90;;;;;;5085098;28;20238;-74
2023/03/03 04:11:50;;;;;;;93.25;38.90;;;3.70;99.90;;;;;;5082767;28;20557;-73
2023/03/03 04:14:17;;;;;;;92.57;40.05;;;3.70;99.90;;;;;;5081105;28;20661;-73
2023/03/03 04:16:44;;;;;;;91.80;36.90;;;3.70;99.90;;;;;;5095696;28;20307;-74
2023/03/03 04:19:11;;;;;;;99.88;38.47;;;3.80;99.90;;;;;;5089675;28;20199;-73
2023/03/03 04:21:38;;;;;;;84.28;36.50;;;3.80;99.90;;;;;;5092333;28;20309;-74
2023/03/03 04:24:07;;;;;;;96.68;37.63;;;3.80;99.90;;;;;;5090152;28;20598;-74
2023/03/03 04:26:36;;;;;;;81.43;40.20;;;3.90;99.90;;;;;;5093141;28;20260;-75
2023/03/03 04:29:04;;;;;;;88.95;36.90;;;3.90;99.90;;;;;;5083472;28;20195;-74
2023/03/03 04:31:31;;;;;;;77.38;33.55;;;3.90;99.90;;;;;;5085789;28;20628;-75
2023/03/03 04:33:58;;;;;;;73.88;35.28;;;3.90;99.90;;;;;;5085800;28;20647;-73
2023/03/03 04:36:25;;;;;;;82.40;33.88;;;3.90;99.90;;;;;;5080501;28;20253;-74
2023/03/03 04:38:52;;;;;;;74.05;33.75;;;3.90;99.90;;;;;;5084895;28;20209;-74
2023/03/03 04:41:19;;;;;;;87.60;36.03;;;4.00;99.90;;;;;;5084689;28;20305;-73
2023/03/03 04:43:47;;;;;;;73.47;33.50;;;4.00;99.90;;;;;;5088196;28;20202;-74
2023/03/03 04:46:14;;;;;;;91.50;36.95;;;4.00;99.90;;;;;;5079735;28;20628;-74
2023/03/03 04:48:42;;;;;;;86.97;35.10;;;4.00;99.90;;;;;;5092061;28;20332;-74
2023/03/03 04:51:09;;;;;;;75.15;33.05;;;3.90;99.90;;;;;;5087517;28;20228;-74
2023/03/03 04:53:37;;;;;;;78.22;32.90;;;3.90;99.90;;;;;;5086125;28;20190;-74
2023/03/03 04:56:04;;;;;;;75.07;34.20;;;3.90;99.90;;;;;;5084889;28;20202;-73
2023/03/03 04:58:31;;;;;;;68.57;30.73;;;3.90;99.90;;;;;;5094654;28;20306;-73
2023/03/03 05:01:00;;;;;;;71.82;33.55;;;4.00;99.90;;;;;;5093058;28;20214;-73
2023/03/03 05:03:27;;;;;;;70.75;33.63;;;4.10;99.90;;;;;;5093806;28;20229;-74
2023/03/03 05:05:54;;;;;;;76.45;30.98;;;4.00;99.90;;;;;;5091269;28;20241;-74
2023/03/03 05:08:23;;;;;;;71.90;31.67;;;4.00;99.90;;;;;;5093709;28;20684;-74
2023/03/03 05:10:52;;;;;;;63.10;32.10;;;4.00;99.90;;;;;;5077605;28;20557;-73
2023/03/03 05:13:19;;;;;;;64.47;29.30;;;4.10;99.90;;;;;;5086617;28;20202;-73
2023/03/03 05:15:50;;;;;;;62.67;28.85;;;4.10;99.90;;;;;;5081863;28;20230;-74
2023/03/03 05:18:18;;;;;;;69.60;32.05;;;4.00;99.90;;;;;;5084413;28;20242;-72
2023/03/03 05:20:45;;;;;;;56.05;26.02;;;3.90;99.90;;;;;;5091507;28;20304;-73
2023/03/03 05:23:12;;;;;;;41.47;21.80;;;3.90;99.90;;;;;;5088953;28;20202;-74
2023/03/03 05:25:41;;;;;;;34.03;16.63;;;3.90;99.90;;;;;;5092196;28;20230;-74
2023/03/03 05:28:09;;;;;;;28.42;15.20;;;3.80;99.90;;;;;;5093460;28;20245;-73
2023/03/03 05:30:37;;;;;;;33.78;14.88;;;3.80;99.90;;;;;;5088654;28;20207;-73
2023/03/03 05:33:04;;;;;;;27.63;14.13;;;3.80;99.90;;;;;;5080968;28;20563;-73
2023/03/03 05:35:33;;;;;;;32.83;16.88;;;3.80;99.90;;;;;;5089784;28;20229;-74
2023/03/03 05:38:00;;;;;;;26.58;14.13;;;3.80;99.90;;;;;;5086608;28;20223;-73
2023/03/03 05:40:28;;;;;;;27.95;15.18;;;3.90;99.90;;;;;;5086444;28;20289;-74
2023/03/03 05:42:55;;;;;;;32.92;15.27;;;3.90;99.90;;;;;;5087940;28;20300;-73
2023/03/03 05:45:23;;;;;;;31.17;15.18;;;4.00;99.90;;;;;;5084849;28;20294;-74
2023/03/03 05:47:50;;;;;;;25.00;15.82;;;3.90;99.90;;;;;;5084721;28;20218;-73
2023/03/03 05:50:18;;;;;;;31.20;15.68;;;3.90;99.90;;;;;;5081048;28;20227;-74
2023/03/03 05:52:49;;;;;;;28.90;14.50;;;4.00;99.90;;;;;;5081984;28;20209;-75
2023/03/03 05:55:16;;;;;;;28.90;15.55;;;4.00;99.90;;;;;;5078649;28;20209;-73
2023/03/03 05:57:43;;;;;;;26.52;14.05;;;3.90;99.90;;;;;;5085084;28;20568;-73
2023/03/03 06:00:13;;;;;;;38.13;17.60;;;3.90;99.90;;;;;;5084004;28;20286;-73
2023/03/03 06:02:40;;;;;;;30.70;15.35;;;3.90;99.90;;;;;;5089693;28;20210;-74
2023/03/03 06:05:08;;;;;;;30.25;16.15;;;3.90;99.90;;;;;;5085456;28;20210;-73
2023/03/03 06:07:36;;;;;;;29.90;17.45;;;4.00;99.90;;;;;;5089722;28;20403;-74
2023/03/03 06:10:05;;;;;;;32.97;17.77;;;4.00;99.90;;;;;;5091811;28;20209;-74
2023/03/03 06:12:32;;;;;;;33.38;19.30;;;4.00;99.90;;;;;;5091575;28;20297;-74
2023/03/03 06:14:59;;;;;;;37.00;18.52;;;4.00;99.90;;;;;;5078370;28;20203;-74
2023/03/03 06:17:26;;;;;;;37.58;18.30;;;4.10;99.90;;;;;;5087176;28;20218;-73
2023/03/03 06:19:54;;;;;;;31.13;19.30;;;4.10;99.90;;;;;;5088440;28;20202;-73
2023/03/03 06:22:21;;;;;;;37.30;18.10;;;4.10;99.90;;;;;;5082440;28;20258;-76
2023/03/03 06:24:49;;;;;;;33.22;18.48;;;4.10;99.90;;;;;;5090903;28;20234;-75
2023/03/03 06:27:17;;;;;;;36.17;19.23;;;4.10;99.90;;;;;;5088338;28;20305;-73
2023/03/03 06:29:44;;;;;;;33.15;17.98;;;4.10;99.90;;;;;;5088362;28;20237;-75
2023/03/03 06:32:11;;;;;;;44.80;20.98;;;4.20;99.90;;;;;;5091131;28;20277;-76
2023/03/03 06:34:38;;;;;;;27.90;17.30;;;4.20;99.90;;;;;;5091109;28;20202;-74
2023/03/03 06:37:05;;;;;;;35.75;18.35;;;4.20;99.90;;;;;;5090698;28;20614;-75
2023/03/03 06:39:33;;;;;;;33.00;17.08;;;4.30;99.90;;;;;;5091498;28;20251;-74
2023/03/03 06:42:00;;;;;;;38.17;18.73;;;4.40;99.90;;;;;;5089939;28;20214;-74
2023/03/03 06:44:28;;;;;;;31.05;17.95;;;4.40;99.90;;;;;;5081551;28;20203;-72
2023/03/03 06:46:56;;;;;;;40.97;23.55;;;4.40;99.90;;;;;;5089841;28;20226;-73
2023/03/03 06:49:23;;;;;;;38.92;22.30;;;4.40;99.90;;;;;;5089365;28;20199;-73
2023/03/03 06:51:51;;;;;;;40.85;21.80;;;4.40;99.90;;;;;;5077635;28;20259;-72
2023/03/03 06:54:19;;;;;;;41.95;20.52;;;4.50;99.90;;;;;;5082520;28;20186;-73
2023/03/03 06:56:47;;;;;;;32.30;19.10;;;4.50;99.90;;;;;;5093331;28;20218;-73
2023/03/03 06:59:18;;;;;;;35.55;19.33;;;4.50;99.90;;;;;;5090867;28;20357;-74
2023/03/03 07:01:48;;;;;;;38.90;20.20;;;4.50;99.90;;;;;;5086720;28;20214;-73
2023/03/03 07:04:29;;;;;;;37.70;20.17;;;4.50;99.90;;;;;;5085656;28;20305;-74
2023/03/03 07:06:57;;;;;;;38.50;20.08;;;4.50;99.90;;;;;;5083113;28;20751;-73
2023/03/03 07:09:27;;;;;;;41.97;20.08;;;4.50;99.90;;;;;;5080292;28;20291;-74
2023/03/03 07:12:00;;;;;;;37.63;21.48;;;4.50;99.90;;;;;;5084048;28;20596;-73
2023/03/03 07:14:29;;;;;;;44.88;22.92;;;4.50;99.90;;;;;;5081476;28;20650;-73
2023/03/03 07:17:01;;;;;;;43.13;21.27;;;4.60;99.90;;;;;;5085843;28;20229;-73
2023/03/03 07:19:34;;;;;;;42.55;21.05;;;4.70;99.90;;;;;;5091113;28;20217;-73
2023/03/03 07:22:15;;;;;;;39.63;20.80;;;4.70;99.90;;;;;;5088869;28;20619;-73
2023/03/03 07:24:44;;;;;;;34.30;18.30;;;4.80;99.90;;;;;;5059298;28;20290;-72
2023/03/03 07:27:14;;;;;;;33.03;18.63;;;4.90;99.90;;;;;;5076360;28;20310;-75
2023/03/03 07:29:42;;;;;;;28.48;16.00;;;4.90;99.90;;;;;;5086986;28;20213;-73
2023/03/03 07:32:24;;;;;;;31.13;17.98;;;5.00;99.90;;;;;;5089102;28;20279;-74
2023/03/03 07:34:54;;;;;;;34.35;17.13;;;4.90;99.90;;;;;;5071183;28;20343;-73
2023/03/03 07:37:30;;;;;;;26.02;15.48;;;4.90;99.90;;;;;;5080371;28;20333;-74
2023/03/03 07:39:58;;;;;;;30.88;15.70;;;4.80;99.90;;;;;;5089815;28;20599;-76
2023/03/03 07:42:38;;;;;;;28.27;15.88;;;4.80;99.90;;;;;;5084383;28;20223;-77
2023/03/03 07:45:25;;;;;;;25.25;14.93;;;4.70;99.90;;;;;;5086014;28;20292;-77
2023/03/03 07:48:16;;;;;;;24.75;14.75;;;4.80;99.90;;;;;;5085567;28;20269;-75
2023/03/03 07:50:44;;;;;;;24.35;13.00;;;5.00;99.90;;;;;;5088199;28;20214;-77
2023/03/03 07:53:21;;;;;;;24.00;13.55;;;5.10;99.90;;;;;;5083149;28;20198;-74
2023/03/03 07:55:48;;;;;;;22.63;13.15;;;5.20;99.90;;;;;;5094682;28;20202;-74
2023/03/03 07:58:22;;;;;;;25.88;13.02;;;5.30;99.90;;;;;;5088868;28;20328;-76
2023/03/03 08:01:27;;;;;;;18.95;10.70;;;5.40;99.90;;;;;;5089257;28;20206;-75
2023/03/03 08:03:56;;;;;;;19.50;11.77;;;5.50;99.90;;;;;;5080644;28;20206;-74
2023/03/03 08:06:45;;;;;;;15.98;11.70;;;5.70;99.90;;;;;;5090444;28;20264;-74
2023/03/03 08:09:42;;;;;;;16.95;11.30;;;5.60;99.90;;;;;;5085185;28;20203;-75
2023/03/03 08:12:41;;;;;;;15.20;9.73;;;5.70;99.90;;;;;;5077989;28;20235;-75
2023/03/03 08:15:20;;;;;;;18.10;11.98;;;6.00;99.90;;;;;;5083659;28;20222;-77
2023/03/03 08:17:48;;;;;;;16.30;10.23;;;6.10;99.90;;;;;;5087182;28;20616;-75
2023/03/03 08:20:44;;;;;;;20.17;12.65;;;6.40;99.90;;;;;;5091912;28;20229;-75
2023/03/03 08:23:12;;;;;;;15.68;11.82;;;6.70;99.90;;;;;;5070530;28;20222;-74
2023/03/03 08:25:39;;;;;;;18.30;9.18;;;7.10;99.90;;;;;;5081484;28;20197;-75
2023/03/03 08:28:09;;;;;;;14.98;8.55;;;7.30;99.90;;;;;;5086091;28;20227;-75
2023/03/03 08:30:37;;;;;;;14.32;10.02;;;7.10;99.90;;;;;;5089982;28;20207;-74
2023/03/03 08:33:04;;;;;;;20.05;9.70;;;7.10;99.90;;;;;;5092961;28;20205;-75
2023/03/03 08:35:31;;;;;;;18.17;10.90;;;7.20;99.90;;;;;;5088055;28;20665;-75
2023/03/03 08:38:00;;;;;;;12.40;9.50;;;7.40;99.90;;;;;;5088100;28;20622;-75
2023/03/03 08:40:27;;;;;;;15.00;10.73;;;7.60;99.90;;;;;;5081507;28;20663;-76
2023/03/03 08:42:54;;;;;;;13.25;8.57;;;7.40;99.90;;;;;;5084563;28;20222;-76
2023/03/03 08:45:21;;;;;;;12.95;9.85;;;7.70;99.90;;;;;;5079674;28;20207;-76
2023/03/03 08:47:50;;;;;;;14.05;9.40;;;8.10;99.90;;;;;;5082164;28;20226;-77
2023/03/03 08:50:17;;;;;;;16.95;10.02;;;8.20;99.90;;;;;;5083712;28;20613;-76
2023/03/03 08:52:45;;;;;;;14.88;10.25;;;8.40;99.90;;;;;;5079902;28;20649;-75
2023/03/03 08:55:13;;;;;;;13.10;10.10;;;8.50;99.90;;;;;;5086948;28;20226;-76
2023/03/03 08:57:40;;;;;;;15.75;9.38;;;8.60;99.90;;;;;;5082419;28;20218;-76
2023/03/03 09:00:09;;;;;;;11.40;8.18;;;9.00;99.90;;;;;;5087311;28;20619;-77
2023/03/03 09:02:36;;;;;;;14.95;10.52;;;9.20;99.90;;;;;;5092837;28;20242;-76
2023/03/03 09:05:04;;;;;;;17.52;10.18;;;9.00;99.90;;;;;;5081284;28;20572;-75
2023/03/03 09:07:33;;;;;;;13.45;10.05;;;9.60;99.90;;;;;;5089612;28;20319;-77
2023/03/03 09:09:59;;;;;;;13.15;9.80;;;10.60;99.90;;;;;;5093186;28;20659;-77
2023/03/03 09:12:39;;;;;;;16.25;9.20;;;10.80;99.90;;;;;;5091809;28;20659;-77
2023/03/03 09:15:18;;;;;;;18.65;10.88;;;10.20;99.90;;;;;;5081730;28;20219;-76
2023/03/03 09:17:45;;;;;;;11.10;7.70;;;10.30;99.90;;;;;;5071960;28;20323;-75
2023/03/03 09:20:31;;;;;;;14.32;9.48;;;10.30;99.90;;;;;;5092978;28;20714;-76
2023/03/03 09:22:58;;;;;;;12.07;8.52;;;10.00;99.90;;;;;;5083899;28;20240;-76
2023/03/03 09:25:33;;;;;;;12.68;8.38;;;9.70;99.90;;;;;;5092705;28;20200;-75
2023/03/03 09:28:02;;;;;;;14.95;8.25;;;9.50;99.90;;;;;;5084759;28;20225;-75
2023/03/03 09:30:39;;;;;;;16.60;9.98;;;9.70;99.90;;;;;;5082209;28;20201;-77
2023/03/03 09:33:28;;;;;;;18.58;9.32;;;9.60;99.90;;;;;;5086157;28;20190;-76
2023/03/03 09:36:12;;;;;;;32.80;11.25;;;9.40;99.90;;;;;;5070938;28;20210;-77
2023/03/03 09:38:44;;;;;;;13.38;7.90;;;9.10;99.90;;;;;;5088747;28;20606;-76
2023/03/03 09:41:43;;;;;;;16.40;9.85;;;9.30;99.90;;;;;;5091657;28;20233;-76
2023/03/03 09:44:42;;;;;;;18.85;12.05;;;8.90;99.90;;;;;;5079609;28;20218;-77
2023/03/03 09:47:39;;;;;;;13.70;10.30;;;8.40;99.90;;;;;;5074992;28;20228;-77
2023/03/03 09:50:21;;;;;;;26.67;15.50;;;8.40;99.90;;;;;;5083172;28;20721;-77
2023/03/03 09:52:55;;;;;;;19.80;12.13;;;8.70;99.90;;;;;;5079230;28;20191;-76
2023/03/03 09:55:35;;;;;;;16.58;10.52;;;8.60;99.90;;;;;;5080310;28;20612;-75
2023/03/03 09:58:18;;;;;;;19.15;11.98;;;9.00;99.90;;;;;;5072557;28;20232;-75
2023/03/03 10:01:00;;;;;;;16.70;12.45;;;9.40;99.90;;;;;;5083676;28;20565;-76
2023/03/03 10:03:52;;;;;;;14.65;10.25;;;9.30;99.90;;;;;;5068122;28;20255;-75
2023/03/03 10:06:25;;;;;;;17.75;12.07;;;9.40;99.90;;;;;;5081729;28;20595;-76
2023/03/03 10:09:26;;;;;;;21.77;13.23;;;9.30;99.90;;;;;;5085609;28;20198;-76
2023/03/03 10:12:02;;;;;;;16.23;10.70;;;9.60;99.90;;;;;;5090215;28;20200;-76
2023/03/03 10:14:43;;;;;;;18.73;12.93;;;9.10;99.90;;;;;;5083149;28;20205;-75
2023/03/03 10:17:37;;;;;;;19.52;13.30;;;8.80;99.90;;;;;;5069148;28;20214;-75
2023/03/03 10:20:21;;;;;;;20.15;13.50;;;8.90;99.90;;;;;;5083128;28;20214;-76
2023/03/03 10:22:52;;;;;;;18.20;9.52;;;9.40;99.90;;;;;;5089560;28;20671;-75
2023/03/03 10:25:35;;;;;;;16.70;10.88;;;9.60;99.90;;;;;;5100908;28;20225;-78
2023/03/03 10:28:29;;;;;;;20.08;13.85;;;9.90;99.90;;;;;;5086616;28;20305;-75
2023/03/03 10:31:06;;;;;;;19.73;11.30;;;9.70;99.90;;;;;;5072202;28;20201;-76
2023/03/03 10:33:43;;;;;;;18.80;14.23;;;9.80;99.90;;;;;;5075923;28;20230;-76
2023/03/03 10:36:38;;;;;;;22.10;15.00;;;9.20;99.90;;;;;;5080472;28;20203;-75
2023/03/03 10:39:33;;;;;;;20.63;15.00;;;9.20;99.90;;;;;;5082272;28;20199;-76
2023/03/03 10:42:21;;;;;;;17.63;12.25;;;9.40;99.90;;;;;;5083000;28;20199;-76
2023/03/03 10:45:10;;;;;;;33.15;15.88;;;9.60;99.90;;;;;;5083292;28;20200;-76
2023/03/03 10:47:55;;;;;;;18.13;15.00;;;9.80;99.90;;;;;;5079185;28;20230;-76
2023/03/03 10:50:31;;;;;;;21.95;16.55;;;9.90;99.90;;;;;;5079768;28;20194;-76
2023/03/03 10:53:14;;;;;;;28.15;19.85;;;10.10;99.90;;;;;;5093970;28;20622;-74
2023/03/03 10:55:51;;;;;;;20.77;16.67;;;10.00;99.90;;;;;;5076158;28;20248;-77
2023/03/03 10:58:36;;;;;;;23.20;17.63;;;10.40;99.90;;;;;;5087853;28;20227;-75
2023/03/03 11:01:14;;;;;;;30.35;21.13;;;10.50;99.90;;;;;;5109467;28;20235;-76
2023/03/03 11:04:17;;;;;;;30.00;22.67;;;10.30;99.90;;;;;;5067926;28;20212;-75
2023/03/03 11:06:48;;;;;;;36.92;24.75;;;10.10;99.90;;;;;;5081562;28;20241;-76
2023/03/03 11:09:39;;;;;;;33.67;22.92;;;9.70;99.90;;;;;;5093325;28;20565;-77
2023/03/03 11:12:21;;;;;;;30.33;22.13;;;9.50;99.90;;;;;;5097403;28;20203;-76
2023/03/03 11:15:03;;;;;;;28.95;20.27;;;9.70;99.90;;;;;;5085550;28;20194;-77
2023/03/03 11:17:59;;;;;;;30.90;21.48;;;9.70;99.90;;;;;;5088523;28;20216;-75
2023/03/03 11:20:36;;;;;;;21.38;16.42;;;9.90;99.90;;;;;;5091114;28;20271;-76
2023/03/03 11:23:19;;;;;;;28.27;19.05;;;10.20;99.90;;;;;;5090663;28;20215;-77
2023/03/03 11:25:52;;;;;;;20.25;15.32;;;10.30;99.90;;;;;;5088198;28;20203;-75
2023/03/03 11:28:29;;;;;;;20.60;13.85;;;10.50;99.90;;;;;;5085828;28;20287;-77
2023/03/03 11:31:09;;;;;;;19.73;14.23;;;10.20;99.90;;;;;;5083794;28;20611;-77
2023/03/03 11:33:44;;;;;;;15.07;12.88;;;10.50;99.90;;;;;;5077946;28;20200;-76
2023/03/03 11:36:16;;;;;;;13.80;10.10;;;10.60;99.90;;;;;;5082625;28;20192;-76
2023/03/03 11:38:54;;;;;;;15.60;10.07;;;10.70;99.90;;;;;;5095596;28;20261;-76
2023/03/03 11:41:31;;;;;;;15.63;10.90;;;10.80;99.90;;;;;;5095531;28;20195;-77
2023/03/03 11:44:05;;;;;;;12.23;9.30;;;10.60;99.90;;;;;;5085333;28;20219;-77
2023/03/03 11:46:38;;;;;;;15.35;8.23;;;10.50;99.90;;;;;;5092002;28;20333;-76
2023/03/03 11:49:11;;;;;;;7.38;6.22;;;10.50;99.90;;;;;;5087598;28;20231;-76
2023/03/03 11:51:49;;;;;;;12.05;6.03;;;10.60;99.90;;;;;;5089951;28;20223;-75
2023/03/03 11:54:24;;;;;;;8.02;5.25;;;10.70;99.90;;;;;;5087790;28;20316;-77
2023/03/03 11:56:55;;;;;;;10.55;5.93;;;11.00;99.90;;;;;;5090580;28;20624;-76
2023/03/03 11:59:38;;;;;;;12.13;5.40;;;10.80;99.90;;;;;;5088389;28;20222;-75
2023/03/03 12:02:21;;;;;;;7.00;4.93;;;10.60;99.90;;;;;;5080060;28;20192;-76
2023/03/03 12:04:53;;;;;;;10.18;4.50;;;10.60;99.90;;;;;;5067586;28;20256;-74
2023/03/03 12:07:31;;;;;;;8.32;4.55;;;10.50;99.90;;;;;;5079288;28;20245;-76
2023/03/03 12:10:12;;;;;;;9.85;6.53;;;10.50;99.90;;;;;;5090290;28;20239;-75
2023/03/03 12:12:43;;;;;;;7.07;5.00;;;10.60;99.90;;;;;;5079582;28;20236;-77
2023/03/03 12:15:23;;;;;;;8.40;6.15;;;10.60;99.90;;;;;;5081579;28;20252;-77
2023/03/03 12:18:40;;;;;;;6.65;4.18;;;10.60;99.90;;;;;;5084476;28;20255;-76
2023/03/03 12:21:19;;;;;;;10.32;5.13;;;10.60;99.90;;;;;;5049660;28;20221;-77
2023/03/03 12:23:55;;;;;;;10.57;5.20;;;10.30;99.90;;;;;;5052766;28;20257;-78
2023/03/03 12:26:33;;;;;;;9.75;4.50;;;10.20;99.90;;;;;;5070994;28;20302;-78
2023/03/03 12:29:06;;;;;;;9.80;4.75;;;10.00;99.90;;;;;;5093749;28;20191;-76
2023/03/03 12:31:46;;;;;;;7.43;4.30;;;9.80;99.90;;;;;;5061635;28;20207;-76
2023/03/03 12:34:21;;;;;;;8.25;4.43;;;9.80;99.90;;;;;;5068999;28;20228;-77
2023/03/03 12:37:14;;;;;;;7.13;4.70;;;9.80;99.90;;;;;;5088178;28;20222;-76
2023/03/03 12:39:50;;;;;;;12.65;3.85;;;9.90;99.90;;;;;;5081954;28;20327;-77
2023/03/03 12:42:34;;;;;;;7.65;4.28;;;10.00;99.90;;;;;;5072701;28;20213;-77
2023/03/03 12:45:19;;;;;;;11.70;4.88;;;9.80;99.90;;;;;;5084644;28;20202;-75
2023/03/03 12:47:50;;;;;;;7.40;5.03;;;9.80;99.90;;;;;;5091638;28;20230;-76
2023/03/03 12:50:29;;;;;;;12.63;5.30;;;9.80;99.90;;;;;;5081401;28;20232;-76
2023/03/03 12:53:04;;;;;;;6.72;4.63;;;9.70;99.90;;;;;;5091225;28;20702;-76
2023/03/03 12:55:46;;;;;;;6.75;5.72;;;9.70;99.90;;;;;;5065560;28;20295;-77
2023/03/03 12:58:25;;;;;;;5.60;4.43;;;9.80;99.90;;;;;;5075861;28;20321;-76
2023/03/03 13:01:01;;;;;;;5.40;4.05;;;9.70;99.90;;;;;;5071805;28;20206;-78
2023/03/03 13:03:40;;;;;;;6.43;4.55;;;9.60;99.90;;;;;;5086789;28;20205;-77
2023/03/03 13:06:17;;;;;;;5.10;4.20;;;9.60;99.90;;;;;;5081749;28;20226;-76
2023/03/03 13:08:57;;;;;;;8.55;4.47;;;9.80;99.90;;;;;;5076976;28;20248;-75